sensor_id;sensor_type;location;lat;lon;timestamp;temperature;humidity
11824;DHT22;5969;50.780;7.726;2023-01-16T00:01:32;4.50;99.90
11824;DHT22;5969;50.780;7.726;2023-01-16T00:03:59;4.60;99.90
11824;DHT22;5969;50.780;7.726;2023-01-16T00:06:26;4.50;99.90
11824;DHT22;5969;50.780;7.726;2023-01-16T00:08:53;4.60;99.90
11824;DHT22;5969;50.780;7.726;2023-01-16T00:11:19;4.60;99.90
11824;DHT22;5969;50.780;7.726;2023-01-16T00:13:47;4.70;99.90
11824;DHT22;5969;50.780;7.726;2023-01-16T00:16:14;4.60;99.90
11824;DHT22;5969;50.780;7.726;2023-01-16T00:18:44;4.70;99.90
11824;DHT22;5969;50.780;7.726;2023-01-16T00:21:11;4.80;99.90
11824;DHT22;5969;50.780;7.726;2023-01-16T00:23:37;4.90;99.90
11824;DHT22;5969;50.780;7.726;2023-01-16T00:26:05;4.80;99.90
11824;DHT22;5969;50.780;7.726;2023-01-16T00:28:34;4.70;99.90
11824;DHT22;5969;50.780;7.726;2023-01-16T00:31:04;4.60;99.90
11824;DHT22;5969;50.780;7.726;2023-01-16T00:33:31;4.60;99.90
11824;DHT22;5969;50.780;7.726;2023-01-16T00:35:58;4.60;99.90
11824;DHT22;5969;50.780;7.726;2023-01-16T00:38:25;4.60;99.90
11824;DHT22;5969;50.780;7.726;2023-01-16T00:40:51;4.60;99.90
11824;DHT22;5969;50.780;7.726;2023-01-16T00:43:18;4.70;99.90
11824;DHT22;5969;50.780;7.726;2023-01-16T00:45:45;4.60;99.90
11824;DHT22;5969;50.780;7.726;2023-01-16T00:48:13;4.60;99.90
11824;DHT22;5969;50.780;7.726;2023-01-16T00:50:40;4.70;99.90
11824;DHT22;5969;50.780;7.726;2023-01-16T00:53:06;4.60;99.90
11824;DHT22;5969;50.780;7.726;2023-01-16T00:55:33;4.50;99.90
11824;DHT22;5969;50.780;7.726;2023-01-16T00:58:02;4.50;99.90
11824;DHT22;5969;50.780;7.726;2023-01-16T01:00:35;4.60;99.90
11824;DHT22;5969;50.780;7.726;2023-01-16T01:03:01;4.60;99.90
11824;DHT22;5969;50.780;7.726;2023-01-16T01:05:30;4.50;99.90
11824;DHT22;5969;50.780;7.726;2023-01-16T01:07:57;4.50;99.90
11824;DHT22;5969;50.780;7.726;2023-01-16T01:10:23;4.60;99.90
11824;DHT22;5969;50.780;7.726;2023-01-16T01:12:53;4.50;99.90
11824;DHT22;5969;50.780;7.726;2023-01-16T01:15:52;4.50;99.90
11824;DHT22;5969;50.780;7.726;2023-01-16T01:18:19;4.60;99.90
11824;DHT22;5969;50.780;7.726;2023-01-16T01:20:47;4.60;99.90
11824;DHT22;5969;50.780;7.726;2023-01-16T01:23:14;4.70;99.90
11824;DHT22;5969;50.780;7.726;2023-01-16T01:25:41;4.70;99.90
11824;DHT22;5969;50.780;7.726;2023-01-16T01:28:07;4.70;99.90
11824;DHT22;5969;50.780;7.726;2023-01-16T01:30:43;4.50;99.90
11824;DHT22;5969;50.780;7.726;2023-01-16T01:33:10;4.60;99.90
11824;DHT22;5969;50.780;7.726;2023-01-16T01:35:37;4.60;99.90
11824;DHT22;5969;50.780;7.726;2023-01-16T01:38:06;4.70;99.90
11824;DHT22;5969;50.780;7.726;2023-01-16T01:40:33;4.70;99.90
11824;DHT22;5969;50.780;7.726;2023-01-16T01:43:00;4.70;99.90
11824;DHT22;5969;50.780;7.726;2023-01-16T01:45:27;4.60;99.90
11824;DHT22;5969;50.780;7.726;2023-01-16T01:47:57;4.50;99.90
11824;DHT22;5969;50.780;7.726;2023-01-16T01:50:34;4.50;99.90
11824;DHT22;5969;50.780;7.726;2023-01-16T01:53:07;4.50;99.90
11824;DHT22;5969;50.780;7.726;2023-01-16T01:55:36;4.40;99.90
11824;DHT22;5969;50.780;7.726;2023-01-16T01:58:04;4.50;99.90
11824;DHT22;5969;50.780;7.726;2023-01-16T02:00:31;4.40;99.90
11824;DHT22;5969;50.780;7.726;2023-01-16T02:03:01;4.40;99.90
11824;DHT22;5969;50.780;7.726;2023-01-16T02:05:34;4.20;99.90
11824;DHT22;5969;50.780;7.726;2023-01-16T02:08:02;4.20;99.90
11824;DHT22;5969;50.780;7.726;2023-01-16T02:10:35;4.30;99.90
11824;DHT22;5969;50.780;7.726;2023-01-16T02:13:03;4.20;99.90
11824;DHT22;5969;50.780;7.726;2023-01-16T02:15:30;4.20;99.90
11824;DHT22;5969;50.780;7.726;2023-01-16T02:18:21;4.30;99.90
11824;DHT22;5969;50.780;7.726;2023-01-16T02:21:15;4.20;99.90
11824;DHT22;5969;50.780;7.726;2023-01-16T02:27:00;4.10;99.90
11824;DHT22;5969;50.780;7.726;2023-01-16T02:29:59;4.00;99.90
11824;DHT22;5969;50.780;7.726;2023-01-16T02:32:45;4.10;99.90
11824;DHT22;5969;50.780;7.726;2023-01-16T02:35:33;4.10;99.90
11824;DHT22;5969;50.780;7.726;2023-01-16T02:38:12;4.10;99.90
11824;DHT22;5969;50.780;7.726;2023-01-16T02:40:50;4.00;99.90
11824;DHT22;5969;50.780;7.726;2023-01-16T02:43:24;4.00;99.90
11824;DHT22;5969;50.780;7.726;2023-01-16T02:45:59;4.10;99.90
11824;DHT22;5969;50.780;7.726;2023-01-16T02:48:36;4.10;99.90
11824;DHT22;5969;50.780;7.726;2023-01-16T02:51:13;4.20;99.90
11824;DHT22;5969;50.780;7.726;2023-01-16T02:53:45;4.10;99.90
11824;DHT22;5969;50.780;7.726;2023-01-16T02:56:16;4.20;99.90
11824;DHT22;5969;50.780;7.726;2023-01-16T02:58:46;4.20;99.90
11824;DHT22;5969;50.780;7.726;2023-01-16T03:01:17;4.20;99.90
11824;DHT22;5969;50.780;7.726;2023-01-16T03:03:48;4.20;99.90
11824;DHT22;5969;50.780;7.726;2023-01-16T03:06:32;4.10;99.90
11824;DHT22;5969;50.780;7.726;2023-01-16T03:09:24;4.20;99.90
11824;DHT22;5969;50.780;7.726;2023-01-16T03:12:21;4.20;99.90
11824;DHT22;5969;50.780;7.726;2023-01-16T03:14:58;4.30;99.90
11824;DHT22;5969;50.780;7.726;2023-01-16T03:17:39;4.40;99.90
11824;DHT22;5969;50.780;7.726;2023-01-16T03:20:16;4.30;99.90
11824;DHT22;5969;50.780;7.726;2023-01-16T03:22:52;4.30;99.90
11824;DHT22;5969;50.780;7.726;2023-01-16T03:25:26;4.20;99.90
11824;DHT22;5969;50.780;7.726;2023-01-16T03:27:59;4.20;99.90
11824;DHT22;5969;50.780;7.726;2023-01-16T03:30:36;4.10;99.90
11824;DHT22;5969;50.780;7.726;2023-01-16T03:33:22;4.00;99.90
11824;DHT22;5969;50.780;7.726;2023-01-16T03:35:56;4.10;99.90
11824;DHT22;5969;50.780;7.726;2023-01-16T03:38:26;4.20;99.90
11824;DHT22;5969;50.780;7.726;2023-01-16T03:40:55;4.10;99.90
11824;DHT22;5969;50.780;7.726;2023-01-16T03:43:25;4.10;99.90
11824;DHT22;5969;50.780;7.726;2023-01-16T03:45:56;4.20;99.90
11824;DHT22;5969;50.780;7.726;2023-01-16T03:48:35;4.20;99.90
11824;DHT22;5969;50.780;7.726;2023-01-16T03:51:06;4.30;99.90
11824;DHT22;5969;50.780;7.726;2023-01-16T03:53:36;4.30;99.90
11824;DHT22;5969;50.780;7.726;2023-01-16T03:56:11;4.40;99.90
11824;DHT22;5969;50.780;7.726;2023-01-16T03:58:41;4.30;99.90
11824;DHT22;5969;50.780;7.726;2023-01-16T04:01:16;4.30;99.90
11824;DHT22;5969;50.780;7.726;2023-01-16T04:03:53;4.30;99.90
11824;DHT22;5969;50.780;7.726;2023-01-16T04:06:27;4.30;99.90
11824;DHT22;5969;50.780;7.726;2023-01-16T04:08:57;4.30;99.90
11824;DHT22;5969;50.780;7.726;2023-01-16T04:11:25;4.30;99.90
11824;DHT22;5969;50.780;7.726;2023-01-16T04:13:54;4.20;99.90
11824;DHT22;5969;50.780;7.726;2023-01-16T04:16:23;4.20;99.90
11824;DHT22;5969;50.780;7.726;2023-01-16T04:18:51;4.10;99.90
11824;DHT22;5969;50.780;7.726;2023-01-16T04:21:27;4.10;99.90
11824;DHT22;5969;50.780;7.726;2023-01-16T04:23:55;4.00;99.90
11824;DHT22;5969;50.780;7.726;2023-01-16T04:26:24;4.10;99.90
11824;DHT22;5969;50.780;7.726;2023-01-16T04:28:51;4.00;99.90
11824;DHT22;5969;50.780;7.726;2023-01-16T04:31:21;4.10;99.90
11824;DHT22;5969;50.780;7.726;2023-01-16T04:33:54;4.10;99.90
11824;DHT22;5969;50.780;7.726;2023-01-16T04:36:21;4.00;99.90
11824;DHT22;5969;50.780;7.726;2023-01-16T04:38:49;4.10;99.90
11824;DHT22;5969;50.780;7.726;2023-01-16T04:41:16;4.10;99.90
11824;DHT22;5969;50.780;7.726;2023-01-16T04:44:01;4.10;99.90
11824;DHT22;5969;50.780;7.726;2023-01-16T04:46:28;4.20;99.90
11824;DHT22;5969;50.780;7.726;2023-01-16T04:48:55;4.30;99.90
11824;DHT22;5969;50.780;7.726;2023-01-16T04:51:22;4.20;99.90
11824;DHT22;5969;50.780;7.726;2023-01-16T04:53:51;4.40;99.90
11824;DHT22;5969;50.780;7.726;2023-01-16T04:56:18;4.50;99.90
11824;DHT22;5969;50.780;7.726;2023-01-16T04:58:44;4.40;99.90
11824;DHT22;5969;50.780;7.726;2023-01-16T05:01:11;4.40;99.90
11824;DHT22;5969;50.780;7.726;2023-01-16T05:03:38;4.40;99.90
11824;DHT22;5969;50.780;7.726;2023-01-16T05:06:05;4.50;99.90
11824;DHT22;5969;50.780;7.726;2023-01-16T05:08:32;4.50;99.90
11824;DHT22;5969;50.780;7.726;2023-01-16T05:11:00;4.50;99.90
11824;DHT22;5969;50.780;7.726;2023-01-16T05:13:27;4.50;99.90
11824;DHT22;5969;50.780;7.726;2023-01-16T05:15:55;4.40;99.90
11824;DHT22;5969;50.780;7.726;2023-01-16T05:18:22;4.40;99.90
11824;DHT22;5969;50.780;7.726;2023-01-16T05:20:49;4.40;99.90
11824;DHT22;5969;50.780;7.726;2023-01-16T05:23:16;4.40;99.90
11824;DHT22;5969;50.780;7.726;2023-01-16T05:25:43;4.30;99.90
11824;DHT22;5969;50.780;7.726;2023-01-16T05:28:11;4.30;99.90
11824;DHT22;5969;50.780;7.726;2023-01-16T05:30:38;4.30;99.90
11824;DHT22;5969;50.780;7.726;2023-01-16T05:33:05;4.30;99.90
11824;DHT22;5969;50.780;7.726;2023-01-16T05:35:32;4.30;99.90
11824;DHT22;5969;50.780;7.726;2023-01-16T05:37:59;4.30;99.90
11824;DHT22;5969;50.780;7.726;2023-01-16T05:40:25;4.20;99.90
11824;DHT22;5969;50.780;7.726;2023-01-16T05:42:52;4.10;99.90
11824;DHT22;5969;50.780;7.726;2023-01-16T05:45:20;4.20;99.90
11824;DHT22;5969;50.780;7.726;2023-01-16T05:47:47;4.20;99.90
11824;DHT22;5969;50.780;7.726;2023-01-16T05:50:14;4.10;99.90
11824;DHT22;5969;50.780;7.726;2023-01-16T05:52:41;4.10;99.90
11824;DHT22;5969;50.780;7.726;2023-01-16T05:55:08;4.20;99.90
11824;DHT22;5969;50.780;7.726;2023-01-16T05:57:35;4.10;99.90
11824;DHT22;5969;50.780;7.726;2023-01-16T06:00:03;4.10;99.90
11824;DHT22;5969;50.780;7.726;2023-01-16T06:02:32;4.10;99.90
11824;DHT22;5969;50.780;7.726;2023-01-16T06:04:59;4.10;99.90
11824;DHT22;5969;50.780;7.726;2023-01-16T06:07:26;4.20;99.90
11824;DHT22;5969;50.780;7.726;2023-01-16T06:09:53;4.30;99.90
11824;DHT22;5969;50.780;7.726;2023-01-16T06:12:20;4.30;99.90
11824;DHT22;5969;50.780;7.726;2023-01-16T06:14:47;4.30;99.90
11824;DHT22;5969;50.780;7.726;2023-01-16T06:17:14;4.40;99.90
11824;DHT22;5969;50.780;7.726;2023-01-16T06:19:43;4.50;99.90
11824;DHT22;5969;50.780;7.726;2023-01-16T06:22:10;4.60;99.90
11824;DHT22;5969;50.780;7.726;2023-01-16T06:24:38;4.60;99.90
11824;DHT22;5969;50.780;7.726;2023-01-16T06:27:04;4.50;99.90
11824;DHT22;5969;50.780;7.726;2023-01-16T06:29:32;4.50;99.90
11824;DHT22;5969;50.780;7.726;2023-01-16T06:31:59;4.40;99.90
11824;DHT22;5969;50.780;7.726;2023-01-16T06:34:26;4.40;99.90
11824;DHT22;5969;50.780;7.726;2023-01-16T06:36:54;4.40;99.90
11824;DHT22;5969;50.780;7.726;2023-01-16T06:39:21;4.40;99.90
11824;DHT22;5969;50.780;7.726;2023-01-16T06:41:48;4.40;99.90
11824;DHT22;5969;50.780;7.726;2023-01-16T06:44:15;4.40;99.90
11824;DHT22;5969;50.780;7.726;2023-01-16T06:46:42;4.30;99.90
11824;DHT22;5969;50.780;7.726;2023-01-16T06:49:09;4.40;99.90
11824;DHT22;5969;50.780;7.726;2023-01-16T06:51:36;4.40;99.90
11824;DHT22;5969;50.780;7.726;2023-01-16T06:54:05;4.40;99.90
11824;DHT22;5969;50.780;7.726;2023-01-16T06:56:32;4.40;99.90
11824;DHT22;5969;50.780;7.726;2023-01-16T06:58:59;4.40;99.90
11824;DHT22;5969;50.780;7.726;2023-01-16T07:01:26;4.30;99.90
11824;DHT22;5969;50.780;7.726;2023-01-16T07:03:53;4.30;99.90
11824;DHT22;5969;50.780;7.726;2023-01-16T07:06:19;4.30;99.90
11824;DHT22;5969;50.780;7.726;2023-01-16T07:08:46;4.30;99.90
11824;DHT22;5969;50.780;7.726;2023-01-16T07:11:19;4.30;99.90
11824;DHT22;5969;50.780;7.726;2023-01-16T07:13:46;4.30;99.90
11824;DHT22;5969;50.780;7.726;2023-01-16T07:16:14;4.40;99.90
11824;DHT22;5969;50.780;7.726;2023-01-16T07:19:03;4.30;99.90
11824;DHT22;5969;50.780;7.726;2023-01-16T07:21:47;4.30;99.90
11824;DHT22;5969;50.780;7.726;2023-01-16T07:24:35;4.30;99.90
11824;DHT22;5969;50.780;7.726;2023-01-16T07:27:06;4.40;99.90
11824;DHT22;5969;50.780;7.726;2023-01-16T07:29:34;4.40;99.90
11824;DHT22;5969;50.780;7.726;2023-01-16T07:32:02;4.40;99.90
11824;DHT22;5969;50.780;7.726;2023-01-16T07:34:30;4.40;99.90
11824;DHT22;5969;50.780;7.726;2023-01-16T07:36:57;4.40;99.90
11824;DHT22;5969;50.780;7.726;2023-01-16T07:39:23;4.40;99.90
11824;DHT22;5969;50.780;7.726;2023-01-16T07:41:50;4.40;99.90
11824;DHT22;5969;50.780;7.726;2023-01-16T07:44:18;4.50;99.90
11824;DHT22;5969;50.780;7.726;2023-01-16T07:46:45;4.50;99.90
11824;DHT22;5969;50.780;7.726;2023-01-16T07:49:12;4.40;99.90
11824;DHT22;5969;50.780;7.726;2023-01-16T07:51:39;4.50;99.90
11824;DHT22;5969;50.780;7.726;2023-01-16T07:54:05;4.50;99.90
11824;DHT22;5969;50.780;7.726;2023-01-16T07:56:33;4.50;99.90
11824;DHT22;5969;50.780;7.726;2023-01-16T07:59:01;4.50;99.90
11824;DHT22;5969;50.780;7.726;2023-01-16T08:01:29;4.60;99.90
11824;DHT22;5969;50.780;7.726;2023-01-16T08:03:55;4.60;99.90
11824;DHT22;5969;50.780;7.726;2023-01-16T08:06:22;4.50;99.90
11824;DHT22;5969;50.780;7.726;2023-01-16T08:08:49;4.60;99.90
11824;DHT22;5969;50.780;7.726;2023-01-16T08:11:16;4.60;99.90
11824;DHT22;5969;50.780;7.726;2023-01-16T08:14:00;4.60;99.90
11824;DHT22;5969;50.780;7.726;2023-01-16T08:16:28;4.50;99.90
11824;DHT22;5969;50.780;7.726;2023-01-16T08:18:56;4.50;99.90
11824;DHT22;5969;50.780;7.726;2023-01-16T08:21:24;4.40;99.90
11824;DHT22;5969;50.780;7.726;2023-01-16T08:23:53;4.20;99.90
11824;DHT22;5969;50.780;7.726;2023-01-16T08:26:20;4.30;99.90
11824;DHT22;5969;50.780;7.726;2023-01-16T08:28:47;4.20;99.90
11824;DHT22;5969;50.780;7.726;2023-01-16T08:31:15;4.10;99.90
11824;DHT22;5969;50.780;7.726;2023-01-16T08:33:44;4.10;99.90
11824;DHT22;5969;50.780;7.726;2023-01-16T08:36:13;4.10;99.90
11824;DHT22;5969;50.780;7.726;2023-01-16T08:38:41;4.00;99.90
11824;DHT22;5969;50.780;7.726;2023-01-16T08:41:07;4.00;99.90
11824;DHT22;5969;50.780;7.726;2023-01-16T08:43:55;4.10;99.90
11824;DHT22;5969;50.780;7.726;2023-01-16T08:46:40;3.90;99.90
11824;DHT22;5969;50.780;7.726;2023-01-16T08:49:26;3.80;99.90
11824;DHT22;5969;50.780;7.726;2023-01-16T08:52:07;3.70;99.90
11824;DHT22;5969;50.780;7.726;2023-01-16T08:54:34;3.90;99.90
11824;DHT22;5969;50.780;7.726;2023-01-16T08:57:01;3.70;99.90
11824;DHT22;5969;50.780;7.726;2023-01-16T08:59:27;3.70;99.90
11824;DHT22;5969;50.780;7.726;2023-01-16T09:01:59;3.80;99.90
11824;DHT22;5969;50.780;7.726;2023-01-16T09:04:27;3.80;99.90
11824;DHT22;5969;50.780;7.726;2023-01-16T09:06:54;3.80;99.90
11824;DHT22;5969;50.780;7.726;2023-01-16T09:09:21;3.90;99.90
11824;DHT22;5969;50.780;7.726;2023-01-16T09:11:54;3.80;99.90
11824;DHT22;5969;50.780;7.726;2023-01-16T09:14:38;3.90;99.90
11824;DHT22;5969;50.780;7.726;2023-01-16T09:17:05;3.90;99.90
11824;DHT22;5969;50.780;7.726;2023-01-16T09:19:35;4.00;99.90
11824;DHT22;5969;50.780;7.726;2023-01-16T09:22:02;3.90;99.90
11824;DHT22;5969;50.780;7.726;2023-01-16T09:24:31;3.80;99.90
11824;DHT22;5969;50.780;7.726;2023-01-16T09:26:57;3.90;99.90
11824;DHT22;5969;50.780;7.726;2023-01-16T09:29:24;3.90;99.90
11824;DHT22;5969;50.780;7.726;2023-01-16T09:31:52;3.80;99.90
11824;DHT22;5969;50.780;7.726;2023-01-16T09:34:20;3.80;99.90
11824;DHT22;5969;50.780;7.726;2023-01-16T09:36:48;3.90;99.90
11824;DHT22;5969;50.780;7.726;2023-01-16T09:39:14;3.80;99.90
11824;DHT22;5969;50.780;7.726;2023-01-16T09:41:57;4.00;99.90
11824;DHT22;5969;50.780;7.726;2023-01-16T09:44:47;3.90;99.90
11824;DHT22;5969;50.780;7.726;2023-01-16T09:47:16;3.80;99.90
11824;DHT22;5969;50.780;7.726;2023-01-16T09:49:46;3.90;99.90
11824;DHT22;5969;50.780;7.726;2023-01-16T09:52:17;4.00;99.90
11824;DHT22;5969;50.780;7.726;2023-01-16T09:55:10;4.00;99.90
11824;DHT22;5969;50.780;7.726;2023-01-16T09:58:07;3.90;99.90
11824;DHT22;5969;50.780;7.726;2023-01-16T10:00:53;3.80;99.90
11824;DHT22;5969;50.780;7.726;2023-01-16T10:03:21;4.00;99.90
11824;DHT22;5969;50.780;7.726;2023-01-16T10:05:51;3.90;99.90
11824;DHT22;5969;50.780;7.726;2023-01-16T10:08:29;4.00;99.90
11824;DHT22;5969;50.780;7.726;2023-01-16T10:11:06;3.90;99.90
11824;DHT22;5969;50.780;7.726;2023-01-16T10:13:49;3.80;99.90
11824;DHT22;5969;50.780;7.726;2023-01-16T10:16:29;3.90;99.90
11824;DHT22;5969;50.780;7.726;2023-01-16T10:19:01;4.00;99.90
11824;DHT22;5969;50.780;7.726;2023-01-16T10:24:40;4.00;99.90
11824;DHT22;5969;50.780;7.726;2023-01-16T10:27:17;4.10;99.90
11824;DHT22;5969;50.780;7.726;2023-01-16T10:29:49;4.00;99.90
11824;DHT22;5969;50.780;7.726;2023-01-16T10:32:21;4.00;99.90
11824;DHT22;5969;50.780;7.726;2023-01-16T10:34:55;4.10;99.90
11824;DHT22;5969;50.780;7.726;2023-01-16T10:37:26;4.10;99.90
11824;DHT22;5969;50.780;7.726;2023-01-16T10:39:56;4.10;99.90
11824;DHT22;5969;50.780;7.726;2023-01-16T10:42:28;3.90;99.90
11824;DHT22;5969;50.780;7.726;2023-01-16T10:45:16;4.00;99.90
11824;DHT22;5969;50.780;7.726;2023-01-16T10:48:02;4.00;99.90
11824;DHT22;5969;50.780;7.726;2023-01-16T10:50:47;4.10;99.90
11824;DHT22;5969;50.780;7.726;2023-01-16T10:53:14;4.00;99.90
11824;DHT22;5969;50.780;7.726;2023-01-16T10:55:46;4.10;99.90
11824;DHT22;5969;50.780;7.726;2023-01-16T10:58:25;4.00;99.90
11824;DHT22;5969;50.780;7.726;2023-01-16T11:00:58;3.90;99.90
11824;DHT22;5969;50.780;7.726;2023-01-16T11:03:33;3.90;99.90
11824;DHT22;5969;50.780;7.726;2023-01-16T11:06:12;3.80;99.90
11824;DHT22;5969;50.780;7.726;2023-01-16T11:08:41;3.90;99.90
11824;DHT22;5969;50.780;7.726;2023-01-16T11:11:11;3.90;99.90
11824;DHT22;5969;50.780;7.726;2023-01-16T11:13:53;4.00;99.90
11824;DHT22;5969;50.780;7.726;2023-01-16T11:16:37;4.10;99.90
11824;DHT22;5969;50.780;7.726;2023-01-16T11:19:23;4.10;99.90
11824;DHT22;5969;50.780;7.726;2023-01-16T11:21:54;4.00;99.90
11824;DHT22;5969;50.780;7.726;2023-01-16T11:24:23;4.00;99.90
11824;DHT22;5969;50.780;7.726;2023-01-16T11:26:59;4.00;99.90
11824;DHT22;5969;50.780;7.726;2023-01-16T11:29:29;4.00;99.90
11824;DHT22;5969;50.780;7.726;2023-01-16T11:32:05;4.00;99.90
11824;DHT22;5969;50.780;7.726;2023-01-16T11:34:33;4.10;99.90
11824;DHT22;5969;50.780;7.726;2023-01-16T11:37:01;4.30;99.90
11824;DHT22;5969;50.780;7.726;2023-01-16T11:39:31;4.40;99.90
11824;DHT22;5969;50.780;7.726;2023-01-16T11:42:04;4.50;99.90
11824;DHT22;5969;50.780;7.726;2023-01-16T11:44:58;4.60;99.90
11824;DHT22;5969;50.780;7.726;2023-01-16T11:47:44;4.60;99.90
11824;DHT22;5969;50.780;7.726;2023-01-16T11:50:26;4.60;99.90
11824;DHT22;5969;50.780;7.726;2023-01-16T11:52:53;4.70;99.90
11824;DHT22;5969;50.780;7.726;2023-01-16T11:55:23;4.60;99.90
11824;DHT22;5969;50.780;7.726;2023-01-16T11:57:57;4.70;99.90
11824;DHT22;5969;50.780;7.726;2023-01-16T12:00:39;4.80;99.90
11824;DHT22;5969;50.780;7.726;2023-01-16T12:03:39;4.70;99.90
11824;DHT22;5969;50.780;7.726;2023-01-16T12:06:14;4.70;99.90
11824;DHT22;5969;50.780;7.726;2023-01-16T12:12:05;4.70;99.90
11824;DHT22;5969;50.780;7.726;2023-01-16T12:14:53;4.80;99.90
11824;DHT22;5969;50.780;7.726;2023-01-16T12:17:31;4.80;99.90
11824;DHT22;5969;50.780;7.726;2023-01-16T12:20:17;4.80;99.90
11824;DHT22;5969;50.780;7.726;2023-01-16T12:23:03;5.00;99.90
11824;DHT22;5969;50.780;7.726;2023-01-16T12:25:39;4.70;99.90
11824;DHT22;5969;50.780;7.726;2023-01-16T12:28:20;4.90;99.90
11824;DHT22;5969;50.780;7.726;2023-01-16T12:31:04;4.70;99.90
11824;DHT22;5969;50.780;7.726;2023-01-16T12:33:45;4.50;99.90
11824;DHT22;5969;50.780;7.726;2023-01-16T12:36:19;4.80;99.90
11824;DHT22;5969;50.780;7.726;2023-01-16T12:38:54;4.90;99.90
11824;DHT22;5969;50.780;7.726;2023-01-16T12:41:27;5.10;99.90
11824;DHT22;5969;50.780;7.726;2023-01-16T12:44:27;5.10;99.90
11824;DHT22;5969;50.780;7.726;2023-01-16T12:50:00;4.90;99.90
11824;DHT22;5969;50.780;7.726;2023-01-16T12:52:40;4.90;99.90
11824;DHT22;5969;50.780;7.726;2023-01-16T12:55:22;4.90;99.90
11824;DHT22;5969;50.780;7.726;2023-01-16T12:58:02;4.80;99.90
11824;DHT22;5969;50.780;7.726;2023-01-16T13:00:33;4.70;99.90
11824;DHT22;5969;50.780;7.726;2023-01-16T13:03:12;4.70;99.90
11824;DHT22;5969;50.780;7.726;2023-01-16T13:05:41;4.90;99.90
11824;DHT22;5969;50.780;7.726;2023-01-16T13:08:16;5.10;99.90
11824;DHT22;5969;50.780;7.726;2023-01-16T13:10:48;5.20;99.90
11824;DHT22;5969;50.780;7.726;2023-01-16T13:13:36;5.30;99.90
11824;DHT22;5969;50.780;7.726;2023-01-16T13:16:10;5.50;99.90
11824;DHT22;5969;50.780;7.726;2023-01-16T13:18:43;5.40;99.90
11824;DHT22;5969;50.780;7.726;2023-01-16T13:21:15;5.20;99.90
11824;DHT22;5969;50.780;7.726;2023-01-16T13:23:46;5.30;99.90
11824;DHT22;5969;50.780;7.726;2023-01-16T13:26:16;5.30;99.90
11824;DHT22;5969;50.780;7.726;2023-01-16T13:28:48;5.00;99.90
11824;DHT22;5969;50.780;7.726;2023-01-16T13:31:25;5.20;99.90
11824;DHT22;5969;50.780;7.726;2023-01-16T13:33:59;5.30;99.90
11824;DHT22;5969;50.780;7.726;2023-01-16T13:39:59;5.30;99.90
11824;DHT22;5969;50.780;7.726;2023-01-16T13:42:29;5.30;99.90
11824;DHT22;5969;50.780;7.726;2023-01-16T13:44:59;5.20;99.90
11824;DHT22;5969;50.780;7.726;2023-01-16T13:47:45;5.00;99.90
11824;DHT22;5969;50.780;7.726;2023-01-16T13:50:20;4.80;99.90
11824;DHT22;5969;50.780;7.726;2023-01-16T13:52:50;4.90;99.90
11824;DHT22;5969;50.780;7.726;2023-01-16T13:55:27;4.80;99.90
11824;DHT22;5969;50.780;7.726;2023-01-16T13:57:55;4.80;99.90
11824;DHT22;5969;50.780;7.726;2023-01-16T14:00:23;4.60;99.90
11824;DHT22;5969;50.780;7.726;2023-01-16T14:03:18;4.60;99.90
11824;DHT22;5969;50.780;7.726;2023-01-16T14:05:52;4.50;99.90
11824;DHT22;5969;50.780;7.726;2023-01-16T14:08:29;4.50;99.90
11824;DHT22;5969;50.780;7.726;2023-01-16T14:11:35;4.70;99.90
11824;DHT22;5969;50.780;7.726;2023-01-16T14:14:31;4.80;99.90
11824;DHT22;5969;50.780;7.726;2023-01-16T14:17:17;4.80;99.90
11824;DHT22;5969;50.780;7.726;2023-01-16T14:19:56;4.80;99.90
11824;DHT22;5969;50.780;7.726;2023-01-16T14:22:33;4.80;99.90
11824;DHT22;5969;50.780;7.726;2023-01-16T14:25:21;4.70;99.90
11824;DHT22;5969;50.780;7.726;2023-01-16T14:27:51;4.70;99.90
11824;DHT22;5969;50.780;7.726;2023-01-16T14:30:24;4.70;99.90
11824;DHT22;5969;50.780;7.726;2023-01-16T14:32:54;4.60;99.90
11824;DHT22;5969;50.780;7.726;2023-01-16T14:35:24;4.60;99.90
11824;DHT22;5969;50.780;7.726;2023-01-16T14:37:57;4.70;99.90
11824;DHT22;5969;50.780;7.726;2023-01-16T14:40:26;4.60;99.90
11824;DHT22;5969;50.780;7.726;2023-01-16T14:43:17;4.60;99.90
11824;DHT22;5969;50.780;7.726;2023-01-16T14:46:30;4.70;99.90
11824;DHT22;5969;50.780;7.726;2023-01-16T14:49:37;4.80;99.90
11824;DHT22;5969;50.780;7.726;2023-01-16T14:52:49;4.70;99.90
11824;DHT22;5969;50.780;7.726;2023-01-16T14:55:45;4.60;99.90
11824;DHT22;5969;50.780;7.726;2023-01-16T14:58:18;4.60;99.90
11824;DHT22;5969;50.780;7.726;2023-01-16T15:00:48;4.80;99.90
11824;DHT22;5969;50.780;7.726;2023-01-16T15:03:20;4.80;99.90
11824;DHT22;5969;50.780;7.726;2023-01-16T15:05:50;4.90;99.90
11824;DHT22;5969;50.780;7.726;2023-01-16T15:08:23;4.90;99.90
11824;DHT22;5969;50.780;7.726;2023-01-16T15:10:53;4.70;99.90
11824;DHT22;5969;50.780;7.726;2023-01-16T15:13:22;4.80;99.90
11824;DHT22;5969;50.780;7.726;2023-01-16T15:15:52;4.80;99.90
11824;DHT22;5969;50.780;7.726;2023-01-16T15:18:20;4.80;99.90
11824;DHT22;5969;50.780;7.726;2023-01-16T15:21:11;4.60;99.90
11824;DHT22;5969;50.780;7.726;2023-01-16T15:23:57;4.60;99.90
11824;DHT22;5969;50.780;7.726;2023-01-16T15:26:45;4.70;99.90
11824;DHT22;5969;50.780;7.726;2023-01-16T15:29:45;4.80;99.90
11824;DHT22;5969;50.780;7.726;2023-01-16T15:32:16;4.70;99.90
11824;DHT22;5969;50.780;7.726;2023-01-16T15:34:47;4.70;99.90
11824;DHT22;5969;50.780;7.726;2023-01-16T15:37:20;4.80;99.90
11824;DHT22;5969;50.780;7.726;2023-01-16T15:39:47;4.70;99.90
11824;DHT22;5969;50.780;7.726;2023-01-16T15:42:19;4.70;99.90
11824;DHT22;5969;50.780;7.726;2023-01-16T15:45:15;4.80;99.90
11824;DHT22;5969;50.780;7.726;2023-01-16T15:48:29;4.70;99.90
11824;DHT22;5969;50.780;7.726;2023-01-16T15:51:02;4.60;99.90
11824;DHT22;5969;50.780;7.726;2023-01-16T15:53:32;4.60;99.90
11824;DHT22;5969;50.780;7.726;2023-01-16T15:56:02;4.60;99.90
11824;DHT22;5969;50.780;7.726;2023-01-16T15:58:32;4.60;99.90
11824;DHT22;5969;50.780;7.726;2023-01-16T16:01:01;4.60;99.90
11824;DHT22;5969;50.780;7.726;2023-01-16T16:03:30;4.60;99.90
11824;DHT22;5969;50.780;7.726;2023-01-16T16:06:04;4.60;99.90
11824;DHT22;5969;50.780;7.726;2023-01-16T16:08:35;4.60;99.90
11824;DHT22;5969;50.780;7.726;2023-01-16T16:11:05;4.60;99.90
11824;DHT22;5969;50.780;7.726;2023-01-16T16:13:52;4.60;99.90
11824;DHT22;5969;50.780;7.726;2023-01-16T16:16:22;4.50;99.90
11824;DHT22;5969;50.780;7.726;2023-01-16T16:19:08;4.50;99.90
11824;DHT22;5969;50.780;7.726;2023-01-16T16:21:38;4.40;99.90
11824;DHT22;5969;50.780;7.726;2023-01-16T16:24:31;4.50;99.90
11824;DHT22;5969;50.780;7.726;2023-01-16T16:27:03;4.40;99.90
11824;DHT22;5969;50.780;7.726;2023-01-16T16:29:34;4.50;99.90
11824;DHT22;5969;50.780;7.726;2023-01-16T16:32:02;4.40;99.90
11824;DHT22;5969;50.780;7.726;2023-01-16T16:34:29;4.40;99.90
11824;DHT22;5969;50.780;7.726;2023-01-16T16:37:00;4.50;99.90
11824;DHT22;5969;50.780;7.726;2023-01-16T16:39:35;4.40;99.90
11824;DHT22;5969;50.780;7.726;2023-01-16T16:42:28;4.30;99.90
11824;DHT22;5969;50.780;7.726;2023-01-16T16:45:13;4.40;99.90
11824;DHT22;5969;50.780;7.726;2023-01-16T16:47:45;4.40;99.90
11824;DHT22;5969;50.780;7.726;2023-01-16T16:50:29;4.40;99.90
11824;DHT22;5969;50.780;7.726;2023-01-16T16:53:03;4.30;99.90
11824;DHT22;5969;50.780;7.726;2023-01-16T16:55:33;4.30;99.90
11824;DHT22;5969;50.780;7.726;2023-01-16T16:58:02;4.30;99.90